createdAt,value
2022-10-21T00:00:53.878Z,15.93
2022-10-21T00:03:22.334Z,12.43
2022-10-21T00:05:50.031Z,9.77
2022-10-21T00:08:18.471Z,14.93
2022-10-21T00:10:46.039Z,13.73
2022-10-21T00:13:13.339Z,17.70
2022-10-21T00:15:40.260Z,12.33
2022-10-21T00:18:07.369Z,13.10
2022-10-21T00:20:37.295Z,12.30
2022-10-21T00:23:07.312Z,14.77
2022-10-21T00:25:34.266Z,15.63
2022-10-21T00:28:01.514Z,14.90
2022-10-21T00:30:28.423Z,13.70
2022-10-21T00:32:59.330Z,14.30
2022-10-21T00:35:32.355Z,14.93
2022-10-21T00:37:59.452Z,14.80
2022-10-21T00:40:26.480Z,12.77
2022-10-21T00:42:53.723Z,15.90
2022-10-21T00:45:24.235Z,13.23
2022-10-21T00:48:03.403Z,13.27
2022-10-21T00:50:38.734Z,13.40
2022-10-21T00:53:14.475Z,11.90
2022-10-21T00:55:49.957Z,15.20
2022-10-21T00:58:21.495Z,12.10
2022-10-21T01:00:50.485Z,15.00
2022-10-21T01:03:17.703Z,14.10
2022-10-21T01:05:45.328Z,12.70
2022-10-21T01:08:12.894Z,11.57
2022-10-21T01:10:40.487Z,11.57
2022-10-21T01:14:11.903Z,14.37
2022-10-21T01:17:00.688Z,12.70
2022-10-21T01:20:28.067Z,20.60
2022-10-21T01:23:43.629Z,16.70
2022-10-21T01:26:58.365Z,11.10
2022-10-21T01:29:57.762Z,13.00
2022-10-21T01:32:48.955Z,14.37
2022-10-21T01:35:49.435Z,13.90
2022-10-21T01:39:09.780Z,11.67
2022-10-21T01:44:57.674Z,15.60
2022-10-21T01:47:43.400Z,15.10
2022-10-21T01:50:34.780Z,12.53
2022-10-21T01:53:11.751Z,13.07
2022-10-21T01:55:40.974Z,14.30
2022-10-21T01:58:19.569Z,14.90
2022-10-21T02:00:48.806Z,13.27
2022-10-21T02:03:28.949Z,21.27
2022-10-21T02:05:56.081Z,14.50
2022-10-21T02:08:23.233Z,15.20
2022-10-21T02:10:56.893Z,15.93
2022-10-21T02:13:31.119Z,16.87
2022-10-21T02:16:03.483Z,17.50
2022-10-21T02:18:30.643Z,14.37
2022-10-21T02:21:06.251Z,15.17
2022-10-21T02:23:50.713Z,13.17
2022-10-21T02:26:18.284Z,16.30
2022-10-21T02:28:45.808Z,13.17
2022-10-21T02:31:22.056Z,11.47
2022-10-21T02:34:17.326Z,13.10
2022-10-21T02:37:11.947Z,12.60
2022-10-21T02:39:56.205Z,10.90
2022-10-21T02:42:31.227Z,12.90
2022-10-21T02:45:01.480Z,11.07
2022-10-21T02:47:29.750Z,11.80
2022-10-21T02:49:56.708Z,11.73
2022-10-21T02:52:23.694Z,11.43
2022-10-21T02:54:50.594Z,10.23
2022-10-21T02:57:17.649Z,11.70
2022-10-21T02:59:44.698Z,10.57
2022-10-21T03:02:11.592Z,11.00
2022-10-21T03:04:38.668Z,13.27
2022-10-21T03:07:05.784Z,12.90
2022-10-21T03:09:32.768Z,13.17
2022-10-21T03:11:59.742Z,17.63
2022-10-21T03:14:26.811Z,14.97
2022-10-21T03:16:53.757Z,14.10
2022-10-21T03:19:20.670Z,13.20
2022-10-21T03:21:47.746Z,13.30
2022-10-21T03:24:24.950Z,12.50
2022-10-21T03:26:55.696Z,13.17
2022-10-21T03:29:22.626Z,16.27
2022-10-21T03:31:49.635Z,16.37
2022-10-21T03:34:16.827Z,14.43
2022-10-21T03:36:43.765Z,11.00
2022-10-21T03:39:12.163Z,14.83
2022-10-21T03:41:39.409Z,10.57
2022-10-21T03:44:06.609Z,11.30
2022-10-21T03:46:33.662Z,11.60
2022-10-21T03:49:04.285Z,12.90
2022-10-21T03:51:32.891Z,13.20
2022-10-21T03:53:59.858Z,12.50
2022-10-21T03:56:27.142Z,12.83
2022-10-21T03:58:58.507Z,12.03
2022-10-21T04:01:27.371Z,14.53
2022-10-21T04:03:54.571Z,16.20
2022-10-21T04:06:21.574Z,18.07
2022-10-21T04:08:48.779Z,13.63
2022-10-21T04:11:16.033Z,14.90
2022-10-21T04:13:43.149Z,14.27
2022-10-21T04:16:19.768Z,13.87
2022-10-21T04:18:47.351Z,17.60
2022-10-21T04:21:14.724Z,12.03
2022-10-21T04:23:42.195Z,15.53
2022-10-21T04:26:09.917Z,11.90
2022-10-21T04:28:37.577Z,13.30
2022-10-21T04:31:04.935Z,6.40
2022-10-21T04:33:31.905Z,4.37
2022-10-21T04:35:59.273Z,6.60
2022-10-21T04:38:26.889Z,7.00
2022-10-21T04:41:02.963Z,8.90
2022-10-21T04:43:30.553Z,4.63
2022-10-21T04:45:57.478Z,6.77
2022-10-21T04:48:24.633Z,5.40
2022-10-21T04:50:53.008Z,7.07
2022-10-21T04:53:21.279Z,10.77
2022-10-21T04:55:53.490Z,4.43
2022-10-21T04:58:22.384Z,13.10
2022-10-21T05:00:53.283Z,5.23
2022-10-21T05:03:21.094Z,4.77
2022-10-21T05:05:52.481Z,5.50
2022-10-21T05:08:20.902Z,5.37
2022-10-21T05:10:48.233Z,6.80
2022-10-21T05:13:15.684Z,5.20
2022-10-21T05:15:42.950Z,7.63
2022-10-21T05:18:12.287Z,5.43
2022-10-21T05:20:39.396Z,4.67
2022-10-21T05:23:06.327Z,4.17
2022-10-21T05:25:34.366Z,6.43
2022-10-21T05:28:01.990Z,6.00
2022-10-21T05:30:29.029Z,5.27
2022-10-21T05:32:56.159Z,4.37
2022-10-21T05:35:23.337Z,4.73
2022-10-21T05:37:50.203Z,6.57
2022-10-21T05:40:18.491Z,4.60
2022-10-21T05:42:45.961Z,6.33
2022-10-21T05:45:12.981Z,6.53
2022-10-21T05:47:44.061Z,6.67
2022-10-21T05:50:12.747Z,12.20
2022-10-21T05:52:40.944Z,4.57
2022-10-21T05:55:09.745Z,4.87
2022-10-21T05:57:38.571Z,6.57
2022-10-21T06:00:07.361Z,9.73
2022-10-21T06:02:35.967Z,7.40
2022-10-21T06:05:04.051Z,5.33
2022-10-21T06:07:30.992Z,4.37
2022-10-21T06:09:58.087Z,6.03
2022-10-21T06:12:25.460Z,5.27
2022-10-21T06:14:52.444Z,3.10
2022-10-21T06:17:19.456Z,8.37
2022-10-21T06:19:50.021Z,4.07
2022-10-21T06:22:18.047Z,2.90
2022-10-21T06:24:46.182Z,4.70
2022-10-21T06:27:13.806Z,5.73
2022-10-21T06:29:40.958Z,2.87
2022-10-21T06:32:07.862Z,3.77
2022-10-21T06:34:34.798Z,5.20
2022-10-21T06:37:01.695Z,8.50
2022-10-21T06:39:28.705Z,5.50
2022-10-21T06:41:55.792Z,7.13
2022-10-21T06:44:39.592Z,4.00
2022-10-21T06:47:06.955Z,5.67
2022-10-21T06:49:34.003Z,7.43
2022-10-21T06:52:01.116Z,4.97
2022-10-21T06:54:28.287Z,10.73
2022-10-21T06:56:55.420Z,6.30
2022-10-21T06:59:22.581Z,10.00
2022-10-21T07:01:59.695Z,6.80
2022-10-21T07:04:28.173Z,4.80
2022-10-21T07:06:55.404Z,3.93
2022-10-21T07:09:22.701Z,6.43
2022-10-21T07:11:49.697Z,10.87
2022-10-21T07:14:16.913Z,4.03
2022-10-21T07:16:43.893Z,3.80
2022-10-21T07:19:11.406Z,5.73
2022-10-21T07:21:38.550Z,6.03
2022-10-21T07:24:06.300Z,5.10
2022-10-21T07:26:34.769Z,6.93
2022-10-21T07:29:02.374Z,13.77
2022-10-21T07:31:34.485Z,9.43
2022-10-21T07:36:39.819Z,11.07
2022-10-21T07:39:12.591Z,13.03
2022-10-21T07:41:47.582Z,9.70
2022-10-21T07:44:16.477Z,10.83
2022-10-21T07:46:44.684Z,11.33
2022-10-21T07:49:13.635Z,9.50
2022-10-21T07:51:41.941Z,10.27
2022-10-21T07:54:09.818Z,10.83
2022-10-21T07:56:45.527Z,10.07
2022-10-21T07:59:14.855Z,11.03
2022-10-21T08:01:44.601Z,14.37
2022-10-21T08:04:15.954Z,6.57
2022-10-21T08:06:46.515Z,6.63
2022-10-21T08:09:15.393Z,6.73
2022-10-21T08:11:42.741Z,10.33
2022-10-21T08:14:11.796Z,5.43
2022-10-21T08:16:39.195Z,4.07
2022-10-21T08:19:07.583Z,3.70
2022-10-21T08:21:36.410Z,5.07
2022-10-21T08:24:04.773Z,3.47
2022-10-21T08:26:32.280Z,6.43
2022-10-21T08:28:59.549Z,5.07
2022-10-21T08:31:26.480Z,3.20
2022-10-21T08:33:55.569Z,7.00
2022-10-21T08:36:25.767Z,3.90
2022-10-21T08:38:53.571Z,9.63
2022-10-21T08:41:29.702Z,4.00
2022-10-21T08:44:20.318Z,4.80
2022-10-21T08:47:11.277Z,3.50
2022-10-21T08:50:16.492Z,6.10
2022-10-21T08:52:59.884Z,3.37
2022-10-21T08:55:38.004Z,2.17
2022-10-21T08:58:05.377Z,2.80
2022-10-21T09:01:26.425Z,1.83
2022-10-21T09:04:04.293Z,2.73
2022-10-21T09:06:57.810Z,2.20
2022-10-21T09:09:41.081Z,4.67
2022-10-21T09:12:49.051Z,1.30
2022-10-21T09:15:45.434Z,3.50
2022-10-21T09:18:30.921Z,1.17
2022-10-21T09:22:33.565Z,2.07
2022-10-21T09:25:15.001Z,3.40
2022-10-21T09:27:55.613Z,4.10
2022-10-21T09:30:25.231Z,1.10
2022-10-21T09:32:59.970Z,1.87
2022-10-21T09:35:41.021Z,3.47
2022-10-21T09:38:13.590Z,3.37
2022-10-21T09:40:40.694Z,3.90
2022-10-21T09:43:24.902Z,1.87
2022-10-21T09:45:52.713Z,3.50
2022-10-21T09:48:25.307Z,1.50
2022-10-21T09:51:02.273Z,3.07
2022-10-21T09:53:52.899Z,2.10
2022-10-21T09:56:27.953Z,5.10
2022-10-21T09:59:14.275Z,3.10
2022-10-21T10:01:43.972Z,2.57
2022-10-21T10:04:22.310Z,2.90
2022-10-21T10:06:50.445Z,2.23
2022-10-21T10:09:34.482Z,2.23
2022-10-21T10:12:13.265Z,3.30
2022-10-21T10:14:47.014Z,3.40
2022-10-21T10:17:37.333Z,3.40
2022-10-21T10:20:04.296Z,4.87
2022-10-21T10:22:43.461Z,2.23
2022-10-21T10:25:22.047Z,3.43
2022-10-21T10:28:20.503Z,1.80
2022-10-21T10:30:52.416Z,1.73
2022-10-21T10:33:26.490Z,1.53
2022-10-21T10:36:05.202Z,1.67
2022-10-21T10:38:52.406Z,4.33
2022-10-21T10:41:19.831Z,3.70
2022-10-21T10:43:51.694Z,1.97
2022-10-21T10:46:30.469Z,1.50
2022-10-21T10:49:12.786Z,2.40
2022-10-21T10:51:42.970Z,2.67
2022-10-21T10:54:24.898Z,2.57
2022-10-21T10:57:26.553Z,3.57
2022-10-21T11:00:23.594Z,5.50
2022-10-21T11:03:13.620Z,4.57
2022-10-21T11:05:56.167Z,1.23
2022-10-21T11:08:34.311Z,4.87
2022-10-21T11:11:06.868Z,4.13
2022-10-21T11:13:38.815Z,3.10
2022-10-21T11:16:23.284Z,1.30
2022-10-21T11:19:15.476Z,1.57
2022-10-21T11:21:54.504Z,1.90
2022-10-21T11:25:04.574Z,2.30
2022-10-21T11:28:19.030Z,3.70
2022-10-21T11:31:43.719Z,1.53
2022-10-21T11:35:08.393Z,2.40
2022-10-21T11:37:50.702Z,2.23
2022-10-21T11:40:28.785Z,2.10
2022-10-21T11:43:01.973Z,1.60
2022-10-21T11:46:08.136Z,3.27
2022-10-21T11:49:18.101Z,2.70
2022-10-21T11:52:18.766Z,1.77
2022-10-21T11:55:09.614Z,2.17
2022-10-21T11:58:20.140Z,2.10
2022-10-21T12:01:24.224Z,3.57
2022-10-21T12:04:21.848Z,6.60
2022-10-21T12:07:13.918Z,1.63
2022-10-21T12:10:21.087Z,2.87
2022-10-21T12:12:51.333Z,1.50
2022-10-21T12:15:29.128Z,3.50
2022-10-21T12:17:58.102Z,2.30
2022-10-21T12:20:27.212Z,1.60
2022-10-21T12:23:05.507Z,4.03
2022-10-21T12:25:48.992Z,1.37
2022-10-21T12:28:36.375Z,2.03
2022-10-21T12:31:40.428Z,2.10
2022-10-21T12:34:10.737Z,3.10
2022-10-21T12:36:40.933Z,6.20
2022-10-21T12:39:34.161Z,2.60
2022-10-21T12:42:27.995Z,1.93
2022-10-21T12:44:54.966Z,2.67
2022-10-21T12:47:42.289Z,2.80
2022-10-21T12:50:15.256Z,1.60
2022-10-21T12:52:44.926Z,2.07
2022-10-21T12:55:27.116Z,1.80
2022-10-21T12:58:02.607Z,1.80
2022-10-21T13:00:29.475Z,1.43
2022-10-21T13:03:21.936Z,3.17
2022-10-21T13:05:49.909Z,3.83
2022-10-21T13:08:22.938Z,1.57
2022-10-21T13:11:05.644Z,1.50
2022-10-21T13:13:43.637Z,1.10
2022-10-21T13:16:19.845Z,1.87
2022-10-21T13:19:04.637Z,2.77
2022-10-21T13:21:41.439Z,5.63
2022-10-21T13:24:11.475Z,1.70
2022-10-21T13:27:01.507Z,3.07
2022-10-21T13:29:33.965Z,1.73
2022-10-21T13:32:19.019Z,1.70
2022-10-21T13:34:58.127Z,1.63
2022-10-21T13:37:35.422Z,2.07
2022-10-21T13:40:18.560Z,3.03
2022-10-21T13:42:59.497Z,1.87
2022-10-21T13:45:36.439Z,1.53
2022-10-21T13:48:07.176Z,2.00
2022-10-21T13:50:40.785Z,1.23
2022-10-21T13:53:38.090Z,1.87
2022-10-21T13:56:08.710Z,2.90
2022-10-21T13:58:41.168Z,1.83
2022-10-21T14:01:20.388Z,2.50
2022-10-21T14:06:36.445Z,2.03
2022-10-21T14:09:08.165Z,1.90
2022-10-21T14:11:45.885Z,5.90
2022-10-21T14:14:17.491Z,2.57
2022-10-21T14:17:03.209Z,2.20
2022-10-21T14:19:35.517Z,2.10
2022-10-21T14:24:43.797Z,2.80
2022-10-21T14:27:26.629Z,2.30
2022-10-21T14:29:54.543Z,3.37
2022-10-21T14:32:25.753Z,1.67
2022-10-21T14:35:09.763Z,1.63
2022-10-21T14:37:47.123Z,1.40
2022-10-21T14:43:22.906Z,2.80
2022-10-21T14:45:54.274Z,5.33
2022-10-21T14:48:32.225Z,4.30
2022-10-21T14:51:13.571Z,1.37
2022-10-21T14:54:02.048Z,1.67
2022-10-21T14:56:40.605Z,21.80
2022-10-21T14:59:39.412Z,1.70
2022-10-21T15:02:21.772Z,1.30
2022-10-21T15:04:52.909Z,1.77
2022-10-21T15:10:24.892Z,1.97
2022-10-21T15:12:52.758Z,2.10
2022-10-21T15:15:55.932Z,1.53
2022-10-21T15:18:36.677Z,2.37
2022-10-21T15:21:09.861Z,1.50
2022-10-21T15:23:41.367Z,2.87
2022-10-21T15:26:23.243Z,2.47
2022-10-21T15:28:51.883Z,1.73
2022-10-21T15:31:29.356Z,7.57
2022-10-21T15:33:58.514Z,1.50
2022-10-21T15:36:25.873Z,1.90
2022-10-21T15:38:54.646Z,1.70
2022-10-21T15:41:26.132Z,2.47
2022-10-21T15:44:13.858Z,2.50
2022-10-21T15:46:47.015Z,2.43
2022-10-21T15:49:22.439Z,1.97
2022-10-21T15:51:50.738Z,2.27
2022-10-21T15:54:19.367Z,1.97
2022-10-21T15:56:51.837Z,2.20
2022-10-21T15:59:32.038Z,2.43
2022-10-21T16:02:00.774Z,2.93
2022-10-21T16:04:27.817Z,4.97
2022-10-21T16:06:55.369Z,2.50
2022-10-21T16:09:26.575Z,4.47
2022-10-21T16:12:00.359Z,5.20
2022-10-21T16:14:30.462Z,4.77
2022-10-21T16:16:59.051Z,4.00
2022-10-21T16:19:26.354Z,4.50
2022-10-21T16:21:53.432Z,3.73
2022-10-21T16:24:20.392Z,4.30
2022-10-21T16:26:49.449Z,2.57
2022-10-21T16:29:23.067Z,3.33
2022-10-21T16:31:51.947Z,4.17
2022-10-21T16:34:19.881Z,5.03
2022-10-21T16:36:46.846Z,2.60
2022-10-21T16:39:21.970Z,3.83
2022-10-21T16:41:49.333Z,2.43
2022-10-21T16:44:16.605Z,6.00
2022-10-21T16:46:55.093Z,3.50
2022-10-21T16:49:26.906Z,1.50
2022-10-21T16:51:54.616Z,3.20
2022-10-21T16:54:23.194Z,2.73
2022-10-21T16:56:52.246Z,5.33
2022-10-21T16:59:21.922Z,7.13
2022-10-21T17:01:48.948Z,10.23
2022-10-21T17:04:16.079Z,40.60
2022-10-21T17:06:43.076Z,32.27
2022-10-21T17:09:10.366Z,16.40
2022-10-21T17:11:40.960Z,15.07
2022-10-21T17:14:19.311Z,3.73
2022-10-21T17:16:46.645Z,3.03
2022-10-21T17:19:14.645Z,3.80
2022-10-21T17:21:42.168Z,5.23
2022-10-21T17:24:15.039Z,2.33
2022-10-21T17:26:42.579Z,4.80
2022-10-21T17:29:12.674Z,4.67
2022-10-21T17:31:42.100Z,4.73
2022-10-21T17:34:26.603Z,10.00
2022-10-21T17:36:53.921Z,2.40
2022-10-21T17:39:21.611Z,3.40
2022-10-21T17:41:48.687Z,2.70
2022-10-21T17:44:16.514Z,3.80
2022-10-21T17:46:43.638Z,6.10
2022-10-21T17:49:10.706Z,2.80
2022-10-21T17:51:37.773Z,5.63
2022-10-21T17:54:04.829Z,3.50
2022-10-21T17:56:31.943Z,4.20
2022-10-21T17:59:00.386Z,6.73
2022-10-21T18:01:28.158Z,7.93
2022-10-21T18:03:58.860Z,3.37
2022-10-21T18:06:26.728Z,3.50
2022-10-21T18:08:53.835Z,3.10
2022-10-21T18:11:21.445Z,4.47
2022-10-21T18:13:53.455Z,4.43
2022-10-21T18:16:23.934Z,3.20
2022-10-21T18:18:50.990Z,3.43
2022-10-21T18:21:23.547Z,4.63
2022-10-21T18:23:53.300Z,2.50
2022-10-21T18:26:28.706Z,4.60
2022-10-21T18:29:00.505Z,5.50
2022-10-21T18:31:32.218Z,3.70
2022-10-21T18:34:01.202Z,6.50
2022-10-21T18:36:28.503Z,5.73
2022-10-21T18:38:57.336Z,4.70
2022-10-21T18:41:24.385Z,4.33
2022-10-21T18:43:55.765Z,4.50
2022-10-21T18:46:23.422Z,4.10
2022-10-21T18:48:50.892Z,5.93
2022-10-21T18:51:19.449Z,5.53
2022-10-21T18:53:50.083Z,3.57
2022-10-21T18:56:21.493Z,5.23
2022-10-21T18:58:48.819Z,2.67
2022-10-21T19:01:17.336Z,9.77
2022-10-21T19:03:44.876Z,6.10
2022-10-21T19:06:38.813Z,2.90
2022-10-21T19:09:09.189Z,2.90
2022-10-21T19:11:36.355Z,7.17
2022-10-21T19:14:03.535Z,4.47
2022-10-21T19:16:30.586Z,4.13
2022-10-21T19:18:57.717Z,4.63
2022-10-21T19:21:25.336Z,4.50
2022-10-21T19:23:53.460Z,3.57
2022-10-21T19:26:23.189Z,3.77
2022-10-21T19:28:50.835Z,4.63
2022-10-21T19:31:21.352Z,4.13
2022-10-21T19:33:48.864Z,8.00
2022-10-21T19:36:15.765Z,5.63
2022-10-21T19:38:44.790Z,4.00
2022-10-21T19:41:16.588Z,2.27
2022-10-21T19:43:44.872Z,17.87
2022-10-21T19:46:19.922Z,1.67
2022-10-21T19:48:49.836Z,1.67
2022-10-21T19:51:20.527Z,2.03
2022-10-21T19:53:49.048Z,4.70
2022-10-21T19:56:18.822Z,1.00
2022-10-21T19:58:49.300Z,1.97
2022-10-21T20:01:24.010Z,2.00
2022-10-21T20:03:52.933Z,10.63
2022-10-21T20:06:27.893Z,1.90
2022-10-21T20:09:01.620Z,1.13
2022-10-21T20:11:29.757Z,1.37
2022-10-21T20:13:57.999Z,4.60
2022-10-21T20:16:31.652Z,1.20
2022-10-21T20:19:01.921Z,1.43
2022-10-21T20:21:30.751Z,2.33
2022-10-21T20:23:59.061Z,1.20
2022-10-21T20:26:26.572Z,1.67
2022-10-21T20:28:53.708Z,3.80
2022-10-21T20:31:21.155Z,2.33
2022-10-21T20:33:50.980Z,1.47
2022-10-21T20:36:22.840Z,1.30
2022-10-21T20:38:51.404Z,1.40
2022-10-21T20:41:23.548Z,3.00
2022-10-21T20:43:51.825Z,1.40
2022-10-21T20:46:22.241Z,1.90
2022-10-21T20:48:51.370Z,3.23
2022-10-21T20:51:29.402Z,1.80
2022-10-21T20:54:03.678Z,1.87
2022-10-21T20:56:38.110Z,1.50
2022-10-21T20:59:07.849Z,1.53
2022-10-21T21:01:42.046Z,3.10
2022-10-21T21:04:12.941Z,2.10
2022-10-21T21:06:43.835Z,2.07
2022-10-21T21:14:31.576Z,1.63
2022-10-21T21:16:58.503Z,1.27
2022-10-21T21:19:25.854Z,3.10
2022-10-21T21:21:53.382Z,1.37
2022-10-21T21:24:20.500Z,1.97
2022-10-21T21:26:47.697Z,2.40
2022-10-21T21:29:14.927Z,2.17
2022-10-21T21:31:42.944Z,2.77
2022-10-21T21:34:10.500Z,5.20
2022-10-21T21:36:37.659Z,2.80
2022-10-21T21:39:06.606Z,2.23
2022-10-21T21:41:34.820Z,1.57
2022-10-21T21:44:01.945Z,2.93
2022-10-21T21:46:28.814Z,1.00
2022-10-21T21:49:04.789Z,1.47
2022-10-21T21:51:35.798Z,2.03
2022-10-21T21:54:04.810Z,1.20
2022-10-21T21:56:31.811Z,2.83
2022-10-21T21:58:59.009Z,3.20
2022-10-21T22:01:28.878Z,4.27
2022-10-21T22:03:57.097Z,4.07
2022-10-21T22:06:30.203Z,3.30
2022-10-21T22:08:57.653Z,2.40
2022-10-21T22:11:29.525Z,2.33
2022-10-21T22:13:56.524Z,2.03
2022-10-21T22:16:27.449Z,3.77
2022-10-21T22:18:54.797Z,2.03
2022-10-21T22:21:21.864Z,1.40
2022-10-21T22:23:50.327Z,2.60
2022-10-21T22:26:20.096Z,1.63
2022-10-21T22:28:47.590Z,1.30
2022-10-21T22:31:17.322Z,2.60
2022-10-21T22:33:45.210Z,1.80
2022-10-21T22:36:12.185Z,1.00
2022-10-21T22:38:39.362Z,2.33
2022-10-21T22:41:09.980Z,1.30
2022-10-21T22:43:39.557Z,1.93
2022-10-21T22:46:21.502Z,6.67
2022-10-21T22:48:53.622Z,1.80
2022-10-21T22:51:20.885Z,1.73
2022-10-21T22:53:53.389Z,1.90
2022-10-21T22:56:24.597Z,1.33
2022-10-21T22:58:51.660Z,2.07
2022-10-21T23:01:18.816Z,1.23
2022-10-21T23:03:45.933Z,3.00
2022-10-21T23:06:12.880Z,1.27
2022-10-21T23:08:39.957Z,1.40
2022-10-21T23:11:06.948Z,1.43
2022-10-21T23:13:34.045Z,2.43
2022-10-21T23:16:00.918Z,1.97
2022-10-21T23:18:27.950Z,1.20
2022-10-21T23:20:55.068Z,1.83
2022-10-21T23:23:22.981Z,1.80
2022-10-21T23:25:50.312Z,2.90
2022-10-21T23:30:45.336Z,1.30
2022-10-21T23:33:12.395Z,1.47
2022-10-21T23:35:39.498Z,1.30
2022-10-21T23:38:06.990Z,1.00
2022-10-21T23:40:33.988Z,3.53
2022-10-21T23:43:00.927Z,1.30
2022-10-21T23:45:29.131Z,1.07
2022-10-21T23:47:56.157Z,1.40
2022-10-21T23:50:23.470Z,1.40
2022-10-21T23:52:50.572Z,2.37
2022-10-21T23:55:17.929Z,2.10
2022-10-21T23:57:45.163Z,1.57
